sensor_id;sensor_type;location;lat;lon;timestamp;P1;durP1;ratioP1;P2;durP2;ratioP2
32323;SDS011;25666;44.350;9.222;2022-07-29T00:01:14;8.63;;;5.05;;
32323;SDS011;25666;44.350;9.222;2022-07-29T00:03:40;7.50;;;4.88;;
32323;SDS011;25666;44.350;9.222;2022-07-29T00:06:06;5.60;;;4.22;;
32323;SDS011;25666;44.350;9.222;2022-07-29T00:08:32;11.27;;;5.15;;
32323;SDS011;25666;44.350;9.222;2022-07-29T00:10:57;7.30;;;4.60;;
32323;SDS011;25666;44.350;9.222;2022-07-29T00:13:23;10.75;;;4.70;;
32323;SDS011;25666;44.350;9.222;2022-07-29T00:15:48;11.30;;;5.20;;
32323;SDS011;25666;44.350;9.222;2022-07-29T00:18:14;10.38;;;4.97;;
32323;SDS011;25666;44.350;9.222;2022-07-29T00:20:39;8.90;;;5.40;;
32323;SDS011;25666;44.350;9.222;2022-07-29T00:23:05;11.95;;;5.03;;
32323;SDS011;25666;44.350;9.222;2022-07-29T00:25:30;8.93;;;4.90;;
32323;SDS011;25666;44.350;9.222;2022-07-29T00:27:56;15.23;;;5.22;;
32323;SDS011;25666;44.350;9.222;2022-07-29T00:30:22;10.30;;;5.47;;
32323;SDS011;25666;44.350;9.222;2022-07-29T00:32:47;6.38;;;5.18;;
32323;SDS011;25666;44.350;9.222;2022-07-29T00:35:13;12.52;;;5.43;;
32323;SDS011;25666;44.350;9.222;2022-07-29T00:37:57;8.98;;;5.15;;
32323;SDS011;25666;44.350;9.222;2022-07-29T00:40:22;20.75;;;7.45;;
32323;SDS011;25666;44.350;9.222;2022-07-29T00:42:49;11.68;;;6.32;;
32323;SDS011;25666;44.350;9.222;2022-07-29T00:45:16;10.65;;;5.20;;
32323;SDS011;25666;44.350;9.222;2022-07-29T00:47:42;12.50;;;5.45;;
32323;SDS011;25666;44.350;9.222;2022-07-29T00:50:08;12.20;;;5.75;;
32323;SDS011;25666;44.350;9.222;2022-07-29T00:52:37;9.40;;;5.47;;
32323;SDS011;25666;44.350;9.222;2022-07-29T00:55:03;10.00;;;4.85;;
32323;SDS011;25666;44.350;9.222;2022-07-29T00:57:30;11.68;;;5.32;;
32323;SDS011;25666;44.350;9.222;2022-07-29T00:59:56;10.77;;;4.95;;
32323;SDS011;25666;44.350;9.222;2022-07-29T01:02:22;8.57;;;5.05;;
32323;SDS011;25666;44.350;9.222;2022-07-29T01:04:48;13.48;;;5.60;;
32323;SDS011;25666;44.350;9.222;2022-07-29T01:07:14;14.07;;;5.65;;
32323;SDS011;25666;44.350;9.222;2022-07-29T01:09:40;10.25;;;4.88;;
32323;SDS011;25666;44.350;9.222;2022-07-29T01:12:07;9.65;;;5.18;;
32323;SDS011;25666;44.350;9.222;2022-07-29T01:14:33;8.02;;;5.78;;
32323;SDS011;25666;44.350;9.222;2022-07-29T01:17:02;12.50;;;5.65;;
32323;SDS011;25666;44.350;9.222;2022-07-29T01:22:18;10.32;;;4.80;;
32323;SDS011;25666;44.350;9.222;2022-07-29T01:28:00;6.75;;;4.82;;
32323;SDS011;25666;44.350;9.222;2022-07-29T01:30:45;9.13;;;6.32;;
32323;SDS011;25666;44.350;9.222;2022-07-29T01:33:15;8.35;;;5.22;;
32323;SDS011;25666;44.350;9.222;2022-07-29T01:36:01;11.85;;;5.63;;
32323;SDS011;25666;44.350;9.222;2022-07-29T01:38:35;12.40;;;5.55;;
32323;SDS011;25666;44.350;9.222;2022-07-29T01:41:05;11.27;;;5.70;;
32323;SDS011;25666;44.350;9.222;2022-07-29T01:43:59;12.98;;;6.13;;
32323;SDS011;25666;44.350;9.222;2022-07-29T01:46:36;8.55;;;5.30;;
32323;SDS011;25666;44.350;9.222;2022-07-29T01:49:11;10.15;;;5.28;;
32323;SDS011;25666;44.350;9.222;2022-07-29T01:57:13;7.85;;;5.55;;
32323;SDS011;25666;44.350;9.222;2022-07-29T01:59:42;10.05;;;5.15;;
32323;SDS011;25666;44.350;9.222;2022-07-29T02:02:10;9.50;;;5.45;;
32323;SDS011;25666;44.350;9.222;2022-07-29T02:04:38;8.90;;;4.60;;
32323;SDS011;25666;44.350;9.222;2022-07-29T02:07:08;10.82;;;5.00;;
32323;SDS011;25666;44.350;9.222;2022-07-29T02:09:38;8.50;;;5.40;;
32323;SDS011;25666;44.350;9.222;2022-07-29T02:12:06;11.07;;;5.40;;
32323;SDS011;25666;44.350;9.222;2022-07-29T02:14:36;10.05;;;5.55;;
32323;SDS011;25666;44.350;9.222;2022-07-29T02:17:05;8.88;;;5.28;;
32323;SDS011;25666;44.350;9.222;2022-07-29T02:19:32;20.58;;;5.55;;
32323;SDS011;25666;44.350;9.222;2022-07-29T02:21:59;12.30;;;5.53;;
32323;SDS011;25666;44.350;9.222;2022-07-29T02:24:26;9.20;;;5.88;;
32323;SDS011;25666;44.350;9.222;2022-07-29T02:26:54;10.02;;;4.97;;
32323;SDS011;25666;44.350;9.222;2022-07-29T02:29:22;14.38;;;5.57;;
32323;SDS011;25666;44.350;9.222;2022-07-29T02:31:50;12.73;;;5.55;;
32323;SDS011;25666;44.350;9.222;2022-07-29T02:34:18;18.33;;;5.72;;
32323;SDS011;25666;44.350;9.222;2022-07-29T02:36:45;8.40;;;4.32;;
32323;SDS011;25666;44.350;9.222;2022-07-29T02:39:12;10.40;;;5.30;;
32323;SDS011;25666;44.350;9.222;2022-07-29T02:41:41;13.75;;;5.97;;
32323;SDS011;25666;44.350;9.222;2022-07-29T02:44:17;8.07;;;5.53;;
32323;SDS011;25666;44.350;9.222;2022-07-29T02:46:47;11.55;;;5.18;;
32323;SDS011;25666;44.350;9.222;2022-07-29T02:52:08;11.18;;;5.00;;
32323;SDS011;25666;44.350;9.222;2022-07-29T02:54:42;13.13;;;5.43;;
32323;SDS011;25666;44.350;9.222;2022-07-29T02:57:22;13.90;;;5.90;;
32323;SDS011;25666;44.350;9.222;2022-07-29T03:00:11;13.18;;;6.20;;
32323;SDS011;25666;44.350;9.222;2022-07-29T03:02:39;10.93;;;5.18;;
32323;SDS011;25666;44.350;9.222;2022-07-29T03:05:09;11.65;;;5.10;;
32323;SDS011;25666;44.350;9.222;2022-07-29T03:07:38;9.60;;;4.97;;
32323;SDS011;25666;44.350;9.222;2022-07-29T03:10:06;8.43;;;6.32;;
32323;SDS011;25666;44.350;9.222;2022-07-29T03:12:33;13.55;;;5.70;;
32323;SDS011;25666;44.350;9.222;2022-07-29T03:15:00;8.73;;;5.40;;
32323;SDS011;25666;44.350;9.222;2022-07-29T03:17:27;9.93;;;4.80;;
32323;SDS011;25666;44.350;9.222;2022-07-29T03:19:52;19.80;;;5.57;;
32323;SDS011;25666;44.350;9.222;2022-07-29T03:22:19;13.70;;;5.63;;
32323;SDS011;25666;44.350;9.222;2022-07-29T03:24:44;9.15;;;5.53;;
32323;SDS011;25666;44.350;9.222;2022-07-29T03:27:10;19.73;;;6.43;;
32323;SDS011;25666;44.350;9.222;2022-07-29T03:29:35;9.88;;;5.80;;
32323;SDS011;25666;44.350;9.222;2022-07-29T03:32:02;12.80;;;5.53;;
32323;SDS011;25666;44.350;9.222;2022-07-29T03:34:29;13.10;;;6.30;;
32323;SDS011;25666;44.350;9.222;2022-07-29T03:36:55;14.43;;;5.95;;
32323;SDS011;25666;44.350;9.222;2022-07-29T03:39:21;10.85;;;6.28;;
32323;SDS011;25666;44.350;9.222;2022-07-29T03:41:51;11.45;;;5.75;;
32323;SDS011;25666;44.350;9.222;2022-07-29T03:44:19;10.25;;;4.80;;
32323;SDS011;25666;44.350;9.222;2022-07-29T03:46:47;15.32;;;5.43;;
32323;SDS011;25666;44.350;9.222;2022-07-29T03:49:15;10.15;;;5.88;;
32323;SDS011;25666;44.350;9.222;2022-07-29T03:51:43;10.10;;;5.50;;
32323;SDS011;25666;44.350;9.222;2022-07-29T03:54:09;13.45;;;5.95;;
32323;SDS011;25666;44.350;9.222;2022-07-29T03:56:40;16.15;;;7.35;;
32323;SDS011;25666;44.350;9.222;2022-07-29T04:01:35;8.02;;;5.00;;
32323;SDS011;25666;44.350;9.222;2022-07-29T04:04:02;10.02;;;5.28;;
32323;SDS011;25666;44.350;9.222;2022-07-29T04:06:36;10.43;;;6.00;;
32323;SDS011;25666;44.350;9.222;2022-07-29T04:09:03;15.55;;;7.32;;
32323;SDS011;25666;44.350;9.222;2022-07-29T04:11:28;13.90;;;5.38;;
32323;SDS011;25666;44.350;9.222;2022-07-29T04:13:54;9.82;;;6.63;;
32323;SDS011;25666;44.350;9.222;2022-07-29T04:16:20;16.75;;;6.50;;
32323;SDS011;25666;44.350;9.222;2022-07-29T04:18:45;19.05;;;6.30;;
32323;SDS011;25666;44.350;9.222;2022-07-29T04:21:11;12.68;;;6.65;;
32323;SDS011;25666;44.350;9.222;2022-07-29T04:23:36;11.20;;;5.68;;
32323;SDS011;25666;44.350;9.222;2022-07-29T04:26:02;19.30;;;6.50;;
32323;SDS011;25666;44.350;9.222;2022-07-29T04:28:27;13.15;;;5.97;;
32323;SDS011;25666;44.350;9.222;2022-07-29T04:30:53;13.35;;;5.63;;
32323;SDS011;25666;44.350;9.222;2022-07-29T04:33:18;12.70;;;6.00;;
32323;SDS011;25666;44.350;9.222;2022-07-29T04:35:44;16.77;;;6.93;;
32323;SDS011;25666;44.350;9.222;2022-07-29T04:38:09;11.38;;;5.63;;
32323;SDS011;25666;44.350;9.222;2022-07-29T04:40:35;17.70;;;6.25;;
32323;SDS011;25666;44.350;9.222;2022-07-29T04:43:00;9.57;;;5.22;;
32323;SDS011;25666;44.350;9.222;2022-07-29T04:45:27;11.00;;;6.50;;
32323;SDS011;25666;44.350;9.222;2022-07-29T04:47:53;13.85;;;4.85;;
32323;SDS011;25666;44.350;9.222;2022-07-29T04:50:19;15.10;;;5.85;;
32323;SDS011;25666;44.350;9.222;2022-07-29T04:52:45;16.25;;;5.45;;
32323;SDS011;25666;44.350;9.222;2022-07-29T04:55:10;14.77;;;6.07;;
32323;SDS011;25666;44.350;9.222;2022-07-29T04:57:36;10.73;;;6.05;;
32323;SDS011;25666;44.350;9.222;2022-07-29T05:00:02;7.72;;;5.88;;
32323;SDS011;25666;44.350;9.222;2022-07-29T05:02:29;11.68;;;5.80;;
32323;SDS011;25666;44.350;9.222;2022-07-29T05:04:54;14.55;;;5.70;;
32323;SDS011;25666;44.350;9.222;2022-07-29T05:07:20;11.38;;;6.25;;
32323;SDS011;25666;44.350;9.222;2022-07-29T05:09:45;6.93;;;4.93;;
32323;SDS011;25666;44.350;9.222;2022-07-29T05:12:11;14.60;;;6.25;;
32323;SDS011;25666;44.350;9.222;2022-07-29T05:14:37;13.55;;;6.57;;
32323;SDS011;25666;44.350;9.222;2022-07-29T05:17:02;10.18;;;5.45;;
32323;SDS011;25666;44.350;9.222;2022-07-29T05:19:28;12.93;;;5.90;;
32323;SDS011;25666;44.350;9.222;2022-07-29T05:21:53;10.60;;;5.95;;
32323;SDS011;25666;44.350;9.222;2022-07-29T05:24:19;17.58;;;6.60;;
32323;SDS011;25666;44.350;9.222;2022-07-29T05:26:44;15.02;;;6.05;;
32323;SDS011;25666;44.350;9.222;2022-07-29T05:29:10;11.70;;;5.32;;
32323;SDS011;25666;44.350;9.222;2022-07-29T05:31:36;16.20;;;6.05;;
32323;SDS011;25666;44.350;9.222;2022-07-29T05:34:01;38.00;;;6.60;;
32323;SDS011;25666;44.350;9.222;2022-07-29T05:36:27;26.27;;;8.02;;
32323;SDS011;25666;44.350;9.222;2022-07-29T05:38:53;14.50;;;6.05;;
32323;SDS011;25666;44.350;9.222;2022-07-29T05:41:18;11.15;;;5.30;;
32323;SDS011;25666;44.350;9.222;2022-07-29T05:43:44;14.60;;;5.82;;
32323;SDS011;25666;44.350;9.222;2022-07-29T05:46:10;10.15;;;6.00;;
32323;SDS011;25666;44.350;9.222;2022-07-29T05:48:35;9.80;;;4.88;;
32323;SDS011;25666;44.350;9.222;2022-07-29T05:51:01;16.27;;;5.40;;
32323;SDS011;25666;44.350;9.222;2022-07-29T05:53:27;7.18;;;4.22;;
32323;SDS011;25666;44.350;9.222;2022-07-29T05:55:52;8.35;;;3.97;;
32323;SDS011;25666;44.350;9.222;2022-07-29T05:58:18;8.95;;;3.80;;
32323;SDS011;25666;44.350;9.222;2022-07-29T06:00:44;7.97;;;4.22;;
32323;SDS011;25666;44.350;9.222;2022-07-29T06:03:10;8.52;;;4.13;;
32323;SDS011;25666;44.350;9.222;2022-07-29T06:05:36;23.02;;;4.82;;
32323;SDS011;25666;44.350;9.222;2022-07-29T06:08:01;14.50;;;3.53;;
32323;SDS011;25666;44.350;9.222;2022-07-29T06:10:27;11.85;;;3.97;;
32323;SDS011;25666;44.350;9.222;2022-07-29T06:12:53;11.00;;;5.55;;
32323;SDS011;25666;44.350;9.222;2022-07-29T06:15:19;12.60;;;3.95;;
32323;SDS011;25666;44.350;9.222;2022-07-29T06:17:44;7.80;;;5.00;;
32323;SDS011;25666;44.350;9.222;2022-07-29T06:20:10;17.10;;;4.93;;
32323;SDS011;25666;44.350;9.222;2022-07-29T06:22:36;10.25;;;4.25;;
32323;SDS011;25666;44.350;9.222;2022-07-29T06:25:02;17.35;;;4.60;;
32323;SDS011;25666;44.350;9.222;2022-07-29T06:27:28;7.88;;;5.05;;
32323;SDS011;25666;44.350;9.222;2022-07-29T06:29:53;7.85;;;4.55;;
32323;SDS011;25666;44.350;9.222;2022-07-29T06:32:19;10.85;;;4.38;;
32323;SDS011;25666;44.350;9.222;2022-07-29T06:34:44;10.35;;;4.70;;
32323;SDS011;25666;44.350;9.222;2022-07-29T06:37:10;11.90;;;4.82;;
32323;SDS011;25666;44.350;9.222;2022-07-29T06:39:35;6.60;;;4.47;;
32323;SDS011;25666;44.350;9.222;2022-07-29T06:42:01;12.90;;;4.97;;
32323;SDS011;25666;44.350;9.222;2022-07-29T06:44:30;7.45;;;4.88;;
32323;SDS011;25666;44.350;9.222;2022-07-29T06:46:56;11.13;;;5.45;;
32323;SDS011;25666;44.350;9.222;2022-07-29T06:49:22;14.30;;;6.40;;
32323;SDS011;25666;44.350;9.222;2022-07-29T06:51:49;8.48;;;5.93;;
32323;SDS011;25666;44.350;9.222;2022-07-29T06:54:14;7.18;;;6.07;;
32323;SDS011;25666;44.350;9.222;2022-07-29T06:56:40;10.57;;;6.72;;
32323;SDS011;25666;44.350;9.222;2022-07-29T06:59:07;7.38;;;6.68;;
32323;SDS011;25666;44.350;9.222;2022-07-29T07:01:35;8.00;;;7.20;;
32323;SDS011;25666;44.350;9.222;2022-07-29T07:04:05;11.98;;;8.38;;
32323;SDS011;25666;44.350;9.222;2022-07-29T07:06:31;13.30;;;9.05;;
32323;SDS011;25666;44.350;9.222;2022-07-29T07:08:57;13.50;;;8.50;;
32323;SDS011;25666;44.350;9.222;2022-07-29T07:11:22;9.63;;;8.00;;
32323;SDS011;25666;44.350;9.222;2022-07-29T07:13:48;8.93;;;8.13;;
32323;SDS011;25666;44.350;9.222;2022-07-29T07:16:13;9.00;;;7.93;;
32323;SDS011;25666;44.350;9.222;2022-07-29T07:18:39;14.20;;;8.05;;
32323;SDS011;25666;44.350;9.222;2022-07-29T07:21:05;8.82;;;7.80;;
32323;SDS011;25666;44.350;9.222;2022-07-29T07:23:31;8.35;;;7.68;;
32323;SDS011;25666;44.350;9.222;2022-07-29T07:25:56;8.07;;;7.43;;
32323;SDS011;25666;44.350;9.222;2022-07-29T07:28:22;9.50;;;7.80;;
32323;SDS011;25666;44.350;9.222;2022-07-29T07:30:48;10.13;;;8.98;;
32323;SDS011;25666;44.350;9.222;2022-07-29T07:33:14;13.77;;;7.55;;
32323;SDS011;25666;44.350;9.222;2022-07-29T07:35:40;10.63;;;8.48;;
32323;SDS011;25666;44.350;9.222;2022-07-29T07:38:06;11.93;;;7.68;;
32323;SDS011;25666;44.350;9.222;2022-07-29T07:40:32;8.95;;;8.15;;
32323;SDS011;25666;44.350;9.222;2022-07-29T07:42:57;7.90;;;7.10;;
32323;SDS011;25666;44.350;9.222;2022-07-29T07:45:23;8.60;;;7.65;;
32323;SDS011;25666;44.350;9.222;2022-07-29T07:47:49;10.85;;;7.07;;
32323;SDS011;25666;44.350;9.222;2022-07-29T07:50:14;8.60;;;6.63;;
32323;SDS011;25666;44.350;9.222;2022-07-29T07:52:49;8.13;;;6.65;;
32323;SDS011;25666;44.350;9.222;2022-07-29T07:55:17;8.85;;;6.82;;
32323;SDS011;25666;44.350;9.222;2022-07-29T07:57:43;6.57;;;5.78;;
32323;SDS011;25666;44.350;9.222;2022-07-29T08:00:09;6.95;;;5.70;;
32323;SDS011;25666;44.350;9.222;2022-07-29T08:02:37;8.63;;;6.68;;
32323;SDS011;25666;44.350;9.222;2022-07-29T08:05:04;7.57;;;5.85;;
32323;SDS011;25666;44.350;9.222;2022-07-29T08:07:30;7.40;;;5.30;;
32323;SDS011;25666;44.350;9.222;2022-07-29T08:09:56;8.80;;;5.60;;
32323;SDS011;25666;44.350;9.222;2022-07-29T08:12:21;8.60;;;5.90;;
32323;SDS011;25666;44.350;9.222;2022-07-29T08:14:47;5.90;;;4.80;;
32323;SDS011;25666;44.350;9.222;2022-07-29T08:17:12;10.75;;;4.28;;
32323;SDS011;25666;44.350;9.222;2022-07-29T08:19:38;6.25;;;4.55;;
32323;SDS011;25666;44.350;9.222;2022-07-29T08:22:03;11.68;;;4.65;;
32323;SDS011;25666;44.350;9.222;2022-07-29T08:24:29;8.25;;;4.32;;
32323;SDS011;25666;44.350;9.222;2022-07-29T08:27:13;10.40;;;4.20;;
32323;SDS011;25666;44.350;9.222;2022-07-29T08:29:39;8.82;;;4.28;;
32323;SDS011;25666;44.350;9.222;2022-07-29T08:32:05;7.60;;;4.07;;
32323;SDS011;25666;44.350;9.222;2022-07-29T08:34:32;8.00;;;4.10;;
32323;SDS011;25666;44.350;9.222;2022-07-29T08:36:57;7.75;;;3.92;;
32323;SDS011;25666;44.350;9.222;2022-07-29T08:39:23;7.82;;;3.95;;
32323;SDS011;25666;44.350;9.222;2022-07-29T08:41:50;12.23;;;4.97;;
32323;SDS011;25666;44.350;9.222;2022-07-29T08:44:17;11.82;;;4.25;;
32323;SDS011;25666;44.350;9.222;2022-07-29T08:46:43;7.50;;;4.25;;
32323;SDS011;25666;44.350;9.222;2022-07-29T08:49:10;7.03;;;4.00;;
32323;SDS011;25666;44.350;9.222;2022-07-29T08:51:36;10.45;;;4.10;;
32323;SDS011;25666;44.350;9.222;2022-07-29T08:54:04;7.65;;;4.13;;
32323;SDS011;25666;44.350;9.222;2022-07-29T08:56:31;10.80;;;4.90;;
32323;SDS011;25666;44.350;9.222;2022-07-29T08:58:58;13.07;;;4.57;;
32323;SDS011;25666;44.350;9.222;2022-07-29T09:01:27;8.23;;;3.88;;
32323;SDS011;25666;44.350;9.222;2022-07-29T09:03:56;6.30;;;4.00;;
32323;SDS011;25666;44.350;9.222;2022-07-29T09:06:22;8.90;;;4.20;;
32323;SDS011;25666;44.350;9.222;2022-07-29T09:08:53;12.27;;;4.38;;
32323;SDS011;25666;44.350;9.222;2022-07-29T09:11:23;8.30;;;3.38;;
32323;SDS011;25666;44.350;9.222;2022-07-29T09:13:49;8.93;;;3.97;;
32323;SDS011;25666;44.350;9.222;2022-07-29T09:16:14;4.75;;;3.47;;
32323;SDS011;25666;44.350;9.222;2022-07-29T09:18:41;5.55;;;4.22;;
32323;SDS011;25666;44.350;9.222;2022-07-29T09:21:15;9.73;;;4.60;;
32323;SDS011;25666;44.350;9.222;2022-07-29T09:24:11;9.32;;;3.40;;
32323;SDS011;25666;44.350;9.222;2022-07-29T09:26:44;7.85;;;3.97;;
32323;SDS011;25666;44.350;9.222;2022-07-29T09:29:12;9.75;;;4.07;;
32323;SDS011;25666;44.350;9.222;2022-07-29T09:31:47;9.00;;;3.70;;
32323;SDS011;25666;44.350;9.222;2022-07-29T09:34:15;5.78;;;4.15;;
32323;SDS011;25666;44.350;9.222;2022-07-29T09:36:47;13.18;;;3.45;;
32323;SDS011;25666;44.350;9.222;2022-07-29T09:39:14;5.88;;;3.90;;
32323;SDS011;25666;44.350;9.222;2022-07-29T09:41:52;7.40;;;3.55;;
32323;SDS011;25666;44.350;9.222;2022-07-29T09:44:19;7.72;;;3.83;;
32323;SDS011;25666;44.350;9.222;2022-07-29T09:46:58;5.43;;;3.47;;
32323;SDS011;25666;44.350;9.222;2022-07-29T09:49:31;8.05;;;3.60;;
32323;SDS011;25666;44.350;9.222;2022-07-29T09:54:31;7.25;;;3.58;;
32323;SDS011;25666;44.350;9.222;2022-07-29T09:57:02;8.10;;;3.83;;
32323;SDS011;25666;44.350;9.222;2022-07-29T09:59:32;12.80;;;5.03;;
32323;SDS011;25666;44.350;9.222;2022-07-29T10:01:58;5.32;;;3.80;;
32323;SDS011;25666;44.350;9.222;2022-07-29T10:04:36;9.73;;;4.63;;
32323;SDS011;25666;44.350;9.222;2022-07-29T10:07:03;8.43;;;3.90;;
32323;SDS011;25666;44.350;9.222;2022-07-29T10:09:30;9.35;;;4.63;;
32323;SDS011;25666;44.350;9.222;2022-07-29T10:14:41;5.95;;;4.22;;
32323;SDS011;25666;44.350;9.222;2022-07-29T10:17:09;17.63;;;5.22;;
32323;SDS011;25666;44.350;9.222;2022-07-29T10:19:35;4.53;;;3.50;;
32323;SDS011;25666;44.350;9.222;2022-07-29T10:22:06;12.18;;;4.43;;
32323;SDS011;25666;44.350;9.222;2022-07-29T10:24:33;7.32;;;4.20;;
32323;SDS011;25666;44.350;9.222;2022-07-29T10:27:01;9.65;;;4.32;;
32323;SDS011;25666;44.350;9.222;2022-07-29T10:29:27;8.88;;;3.92;;
32323;SDS011;25666;44.350;9.222;2022-07-29T10:37:35;9.93;;;3.90;;
32323;SDS011;25666;44.350;9.222;2022-07-29T10:40:28;8.10;;;5.72;;
32323;SDS011;25666;44.350;9.222;2022-07-29T10:43:28;13.60;;;5.32;;
32323;SDS011;25666;44.350;9.222;2022-07-29T10:45:59;9.02;;;3.88;;
32323;SDS011;25666;44.350;9.222;2022-07-29T10:48:25;9.20;;;3.90;;
32323;SDS011;25666;44.350;9.222;2022-07-29T10:50:52;8.02;;;4.43;;
32323;SDS011;25666;44.350;9.222;2022-07-29T10:53:18;7.97;;;3.78;;
32323;SDS011;25666;44.350;9.222;2022-07-29T10:55:44;11.13;;;5.30;;
32323;SDS011;25666;44.350;9.222;2022-07-29T10:58:16;10.50;;;4.43;;
32323;SDS011;25666;44.350;9.222;2022-07-29T11:00:42;13.93;;;4.13;;
32323;SDS011;25666;44.350;9.222;2022-07-29T11:03:08;8.73;;;3.85;;
32323;SDS011;25666;44.350;9.222;2022-07-29T11:05:51;10.45;;;4.00;;
32323;SDS011;25666;44.350;9.222;2022-07-29T11:08:19;8.45;;;3.90;;
32323;SDS011;25666;44.350;9.222;2022-07-29T11:10:49;6.70;;;3.53;;
32323;SDS011;25666;44.350;9.222;2022-07-29T11:16:15;6.53;;;3.80;;
32323;SDS011;25666;44.350;9.222;2022-07-29T11:21:39;7.53;;;4.25;;
32323;SDS011;25666;44.350;9.222;2022-07-29T11:24:12;11.20;;;4.47;;
32323;SDS011;25666;44.350;9.222;2022-07-29T11:27:05;10.85;;;4.75;;
32323;SDS011;25666;44.350;9.222;2022-07-29T11:29:32;6.75;;;4.32;;
32323;SDS011;25666;44.350;9.222;2022-07-29T11:32:08;8.63;;;4.22;;
32323;SDS011;25666;44.350;9.222;2022-07-29T11:34:36;7.93;;;4.63;;
32323;SDS011;25666;44.350;9.222;2022-07-29T11:39:43;11.68;;;3.78;;
32323;SDS011;25666;44.350;9.222;2022-07-29T11:45:03;7.20;;;4.43;;
32323;SDS011;25666;44.350;9.222;2022-07-29T11:47:46;11.32;;;4.32;;
32323;SDS011;25666;44.350;9.222;2022-07-29T11:50:13;12.30;;;4.07;;
32323;SDS011;25666;44.350;9.222;2022-07-29T11:52:42;10.60;;;4.05;;
32323;SDS011;25666;44.350;9.222;2022-07-29T11:55:12;7.50;;;3.75;;
32323;SDS011;25666;44.350;9.222;2022-07-29T11:57:46;7.25;;;3.80;;
32323;SDS011;25666;44.350;9.222;2022-07-29T12:00:26;6.57;;;3.45;;
32323;SDS011;25666;44.350;9.222;2022-07-29T12:03:00;9.48;;;3.30;;
32323;SDS011;25666;44.350;9.222;2022-07-29T12:08:06;6.95;;;3.58;;
32323;SDS011;25666;44.350;9.222;2022-07-29T12:10:41;5.45;;;3.45;;
32323;SDS011;25666;44.350;9.222;2022-07-29T12:13:08;6.72;;;3.60;;
32323;SDS011;25666;44.350;9.222;2022-07-29T12:15:35;4.00;;;3.35;;
32323;SDS011;25666;44.350;9.222;2022-07-29T12:18:13;9.18;;;4.25;;
32323;SDS011;25666;44.350;9.222;2022-07-29T12:20:41;8.75;;;3.55;;
32323;SDS011;25666;44.350;9.222;2022-07-29T12:23:07;6.47;;;3.38;;
32323;SDS011;25666;44.350;9.222;2022-07-29T12:25:36;5.15;;;3.47;;
32323;SDS011;25666;44.350;9.222;2022-07-29T12:28:04;8.35;;;3.72;;
32323;SDS011;25666;44.350;9.222;2022-07-29T12:30:36;7.45;;;3.53;;
32323;SDS011;25666;44.350;9.222;2022-07-29T12:33:13;4.45;;;2.75;;
32323;SDS011;25666;44.350;9.222;2022-07-29T12:35:48;7.93;;;3.88;;
32323;SDS011;25666;44.350;9.222;2022-07-29T12:38:21;7.07;;;4.10;;
32323;SDS011;25666;44.350;9.222;2022-07-29T12:40:47;8.38;;;3.20;;
32323;SDS011;25666;44.350;9.222;2022-07-29T12:43:20;9.25;;;3.60;;
32323;SDS011;25666;44.350;9.222;2022-07-29T12:45:48;11.23;;;3.80;;
32323;SDS011;25666;44.350;9.222;2022-07-29T12:48:16;14.52;;;3.67;;
32323;SDS011;25666;44.350;9.222;2022-07-29T12:50:53;9.43;;;3.22;;
32323;SDS011;25666;44.350;9.222;2022-07-29T12:53:18;15.23;;;3.80;;
32323;SDS011;25666;44.350;9.222;2022-07-29T12:55:48;8.57;;;4.22;;
32323;SDS011;25666;44.350;9.222;2022-07-29T12:58:38;9.88;;;3.40;;
32323;SDS011;25666;44.350;9.222;2022-07-29T13:01:13;5.85;;;3.55;;
32323;SDS011;25666;44.350;9.222;2022-07-29T13:03:58;14.60;;;4.40;;
32323;SDS011;25666;44.350;9.222;2022-07-29T13:11:33;7.82;;;3.47;;
32323;SDS011;25666;44.350;9.222;2022-07-29T13:14:00;8.50;;;4.10;;
32323;SDS011;25666;44.350;9.222;2022-07-29T13:16:26;8.13;;;3.70;;
32323;SDS011;25666;44.350;9.222;2022-07-29T13:19:05;7.38;;;3.38;;
32323;SDS011;25666;44.350;9.222;2022-07-29T13:21:35;7.35;;;2.83;;
32323;SDS011;25666;44.350;9.222;2022-07-29T13:24:02;5.72;;;3.30;;
32323;SDS011;25666;44.350;9.222;2022-07-29T13:26:29;6.47;;;3.30;;
32323;SDS011;25666;44.350;9.222;2022-07-29T13:28:54;15.45;;;3.83;;
32323;SDS011;25666;44.350;9.222;2022-07-29T13:31:20;8.57;;;3.65;;
32323;SDS011;25666;44.350;9.222;2022-07-29T13:33:47;10.82;;;3.75;;
32323;SDS011;25666;44.350;9.222;2022-07-29T13:36:13;13.35;;;3.90;;
32323;SDS011;25666;44.350;9.222;2022-07-29T13:38:38;8.05;;;2.90;;
32323;SDS011;25666;44.350;9.222;2022-07-29T13:41:04;6.85;;;3.58;;
32323;SDS011;25666;44.350;9.222;2022-07-29T13:43:30;4.95;;;3.35;;
32323;SDS011;25666;44.350;9.222;2022-07-29T13:45:56;6.72;;;3.45;;
32323;SDS011;25666;44.350;9.222;2022-07-29T13:48:21;12.18;;;4.00;;
32323;SDS011;25666;44.350;9.222;2022-07-29T13:50:47;5.22;;;3.85;;
32323;SDS011;25666;44.350;9.222;2022-07-29T13:53:13;11.40;;;3.88;;
32323;SDS011;25666;44.350;9.222;2022-07-29T13:55:39;6.35;;;3.13;;
32323;SDS011;25666;44.350;9.222;2022-07-29T13:58:04;5.75;;;3.25;;
32323;SDS011;25666;44.350;9.222;2022-07-29T14:00:30;12.30;;;3.88;;
32323;SDS011;25666;44.350;9.222;2022-07-29T14:02:56;9.77;;;4.00;;
32323;SDS011;25666;44.350;9.222;2022-07-29T14:05:22;9.70;;;3.67;;
32323;SDS011;25666;44.350;9.222;2022-07-29T14:07:48;20.35;;;4.47;;
32323;SDS011;25666;44.350;9.222;2022-07-29T14:10:13;10.88;;;3.78;;
32323;SDS011;25666;44.350;9.222;2022-07-29T14:12:39;9.45;;;3.85;;
32323;SDS011;25666;44.350;9.222;2022-07-29T14:15:07;7.18;;;3.55;;
32323;SDS011;25666;44.350;9.222;2022-07-29T14:17:33;7.90;;;3.90;;
32323;SDS011;25666;44.350;9.222;2022-07-29T14:19:58;6.55;;;3.22;;
32323;SDS011;25666;44.350;9.222;2022-07-29T14:22:24;5.22;;;3.70;;
32323;SDS011;25666;44.350;9.222;2022-07-29T14:24:50;9.18;;;3.83;;
32323;SDS011;25666;44.350;9.222;2022-07-29T14:27:16;6.75;;;3.40;;
32323;SDS011;25666;44.350;9.222;2022-07-29T14:29:41;6.15;;;3.60;;
32323;SDS011;25666;44.350;9.222;2022-07-29T14:32:08;7.78;;;4.88;;
32323;SDS011;25666;44.350;9.222;2022-07-29T14:34:35;9.38;;;4.05;;
32323;SDS011;25666;44.350;9.222;2022-07-29T14:37:02;7.35;;;4.40;;
32323;SDS011;25666;44.350;9.222;2022-07-29T14:39:30;13.43;;;3.80;;
32323;SDS011;25666;44.350;9.222;2022-07-29T14:41:56;10.65;;;3.95;;
32323;SDS011;25666;44.350;9.222;2022-07-29T14:44:21;6.38;;;3.75;;
32323;SDS011;25666;44.350;9.222;2022-07-29T14:46:47;7.45;;;3.70;;
32323;SDS011;25666;44.350;9.222;2022-07-29T14:49:13;5.95;;;3.70;;
32323;SDS011;25666;44.350;9.222;2022-07-29T14:51:38;7.90;;;3.40;;
32323;SDS011;25666;44.350;9.222;2022-07-29T14:54:04;7.55;;;3.08;;
32323;SDS011;25666;44.350;9.222;2022-07-29T14:56:29;10.40;;;3.85;;
32323;SDS011;25666;44.350;9.222;2022-07-29T14:58:55;8.38;;;3.97;;
32323;SDS011;25666;44.350;9.222;2022-07-29T15:01:22;9.70;;;3.90;;
32323;SDS011;25666;44.350;9.222;2022-07-29T15:03:49;4.22;;;3.10;;
32323;SDS011;25666;44.350;9.222;2022-07-29T15:06:15;5.60;;;3.25;;
32323;SDS011;25666;44.350;9.222;2022-07-29T15:08:41;11.05;;;4.15;;
32323;SDS011;25666;44.350;9.222;2022-07-29T15:11:06;6.47;;;3.35;;
32323;SDS011;25666;44.350;9.222;2022-07-29T15:13:32;7.13;;;3.60;;
32323;SDS011;25666;44.350;9.222;2022-07-29T15:15:58;8.55;;;3.92;;
32323;SDS011;25666;44.350;9.222;2022-07-29T15:18:24;10.98;;;4.15;;
32323;SDS011;25666;44.350;9.222;2022-07-29T15:20:49;6.70;;;3.88;;
32323;SDS011;25666;44.350;9.222;2022-07-29T15:23:15;10.77;;;4.25;;
32323;SDS011;25666;44.350;9.222;2022-07-29T15:25:40;10.00;;;3.60;;
32323;SDS011;25666;44.350;9.222;2022-07-29T15:28:06;9.45;;;3.70;;
32323;SDS011;25666;44.350;9.222;2022-07-29T15:30:35;9.60;;;3.90;;
32323;SDS011;25666;44.350;9.222;2022-07-29T15:33:06;7.45;;;4.13;;